sensor_id;sensor_type;location;lat;lon;timestamp;temperature;humidity
70154;DHT22;57519;51.494;-2.626;2022-11-11T00:00:31;14.85;84.94
70154;DHT22;57519;51.494;-2.626;2022-11-11T00:02:57;14.84;84.80
70154;DHT22;57519;51.494;-2.626;2022-11-11T00:05:23;14.88;84.54
70154;DHT22;57519;51.494;-2.626;2022-11-11T00:07:48;14.85;84.72
70154;DHT22;57519;51.494;-2.626;2022-11-11T00:10:16;14.82;84.84
70154;DHT22;57519;51.494;-2.626;2022-11-11T00:12:41;14.85;84.85
70154;DHT22;57519;51.494;-2.626;2022-11-11T00:15:07;14.85;84.85
70154;DHT22;57519;51.494;-2.626;2022-11-11T00:17:33;14.87;84.60
70154;DHT22;57519;51.494;-2.626;2022-11-11T00:20:17;14.85;84.71
70154;DHT22;57519;51.494;-2.626;2022-11-11T00:23:02;14.88;84.76
70154;DHT22;57519;51.494;-2.626;2022-11-11T00:25:49;14.85;84.89
70154;DHT22;57519;51.494;-2.626;2022-11-11T00:28:16;14.85;84.60
70154;DHT22;57519;51.494;-2.626;2022-11-11T00:30:41;14.88;84.61
70154;DHT22;57519;51.494;-2.626;2022-11-11T00:33:07;14.85;84.53
70154;DHT22;57519;51.494;-2.626;2022-11-11T00:35:32;14.85;84.79
70154;DHT22;57519;51.494;-2.626;2022-11-11T00:38:16;14.84;84.75
70154;DHT22;57519;51.494;-2.626;2022-11-11T00:41:00;14.93;84.07
70154;DHT22;57519;51.494;-2.626;2022-11-11T00:43:25;14.91;84.19
70154;DHT22;57519;51.494;-2.626;2022-11-11T00:45:51;14.91;84.06
70154;DHT22;57519;51.494;-2.626;2022-11-11T00:48:16;14.87;84.04
70154;DHT22;57519;51.494;-2.626;2022-11-11T00:51:00;14.89;83.73
70154;DHT22;57519;51.494;-2.626;2022-11-11T00:53:30;14.87;83.81
70154;DHT22;57519;51.494;-2.626;2022-11-11T00:56:01;14.87;83.72
70154;DHT22;57519;51.494;-2.626;2022-11-11T00:58:26;14.89;83.52
70154;DHT22;57519;51.494;-2.626;2022-11-11T01:00:52;14.89;83.39
70154;DHT22;57519;51.494;-2.626;2022-11-11T01:03:18;14.89;83.53
70154;DHT22;57519;51.494;-2.626;2022-11-11T01:05:44;14.88;83.51
70154;DHT22;57519;51.494;-2.626;2022-11-11T01:08:10;14.88;83.39
70154;DHT22;57519;51.494;-2.626;2022-11-11T01:10:36;14.87;83.57
70154;DHT22;57519;51.494;-2.626;2022-11-11T01:13:25;14.82;83.86
70154;DHT22;57519;51.494;-2.626;2022-11-11T01:15:52;14.82;83.98
70154;DHT22;57519;51.494;-2.626;2022-11-11T01:18:23;14.78;84.08
70154;DHT22;57519;51.494;-2.626;2022-11-11T01:21:16;14.82;84.14
70154;DHT22;57519;51.494;-2.626;2022-11-11T01:23:42;14.78;84.32
70154;DHT22;57519;51.494;-2.626;2022-11-11T01:26:21;14.75;84.59
70154;DHT22;57519;51.494;-2.626;2022-11-11T01:28:48;14.74;84.80
70154;DHT22;57519;51.494;-2.626;2022-11-11T01:31:15;14.80;84.59
70154;DHT22;57519;51.494;-2.626;2022-11-11T01:33:41;14.80;84.79
70154;DHT22;57519;51.494;-2.626;2022-11-11T01:36:17;14.78;84.76
70154;DHT22;57519;51.494;-2.626;2022-11-11T01:38:47;14.77;84.89
70154;DHT22;57519;51.494;-2.626;2022-11-11T01:41:16;14.77;84.78
70154;DHT22;57519;51.494;-2.626;2022-11-11T01:46:34;14.80;84.58
70154;DHT22;57519;51.494;-2.626;2022-11-11T01:54:18;14.81;84.49
70154;DHT22;57519;51.494;-2.626;2022-11-11T01:56:48;14.91;84.19
70154;DHT22;57519;51.494;-2.626;2022-11-11T01:59:16;14.93;84.04
70154;DHT22;57519;51.494;-2.626;2022-11-11T02:01:42;14.92;84.11
70154;DHT22;57519;51.494;-2.626;2022-11-11T02:04:09;14.87;84.29
70154;DHT22;57519;51.494;-2.626;2022-11-11T02:06:56;14.74;84.49
70154;DHT22;57519;51.494;-2.626;2022-11-11T02:09:23;14.77;84.73
70154;DHT22;57519;51.494;-2.626;2022-11-11T02:11:50;14.71;84.72
70154;DHT22;57519;51.494;-2.626;2022-11-11T02:14:41;14.60;85.10
70154;DHT22;57519;51.494;-2.626;2022-11-11T02:17:10;14.63;84.79
70154;DHT22;57519;51.494;-2.626;2022-11-11T02:19:46;14.61;84.85
70154;DHT22;57519;51.494;-2.626;2022-11-11T02:22:17;14.67;84.45
70154;DHT22;57519;51.494;-2.626;2022-11-11T02:24:45;14.67;84.60
70154;DHT22;57519;51.494;-2.626;2022-11-11T02:27:13;14.64;84.70
70154;DHT22;57519;51.494;-2.626;2022-11-11T02:29:41;14.74;84.47
70154;DHT22;57519;51.494;-2.626;2022-11-11T02:32:08;14.74;84.21
70154;DHT22;57519;51.494;-2.626;2022-11-11T02:34:33;14.71;84.43
70154;DHT22;57519;51.494;-2.626;2022-11-11T02:37:00;14.64;84.59
70154;DHT22;57519;51.494;-2.626;2022-11-11T02:39:26;14.64;84.72
70154;DHT22;57519;51.494;-2.626;2022-11-11T02:41:52;14.64;84.60
70154;DHT22;57519;51.494;-2.626;2022-11-11T02:44:24;14.68;84.50
70154;DHT22;57519;51.494;-2.626;2022-11-11T02:46:50;14.65;84.68
70154;DHT22;57519;51.494;-2.626;2022-11-11T02:49:16;14.71;84.34
70154;DHT22;57519;51.494;-2.626;2022-11-11T02:51:42;14.72;84.30
70154;DHT22;57519;51.494;-2.626;2022-11-11T02:54:07;14.71;84.48
70154;DHT22;57519;51.494;-2.626;2022-11-11T02:56:32;14.71;84.62
70154;DHT22;57519;51.494;-2.626;2022-11-11T02:59:17;14.80;84.51
70154;DHT22;57519;51.494;-2.626;2022-11-11T03:01:42;14.81;84.40
70154;DHT22;57519;51.494;-2.626;2022-11-11T03:04:07;14.80;84.48
70154;DHT22;57519;51.494;-2.626;2022-11-11T03:06:33;14.80;84.56
70154;DHT22;57519;51.494;-2.626;2022-11-11T03:08:58;14.81;84.68
70154;DHT22;57519;51.494;-2.626;2022-11-11T03:11:24;14.78;84.92
70154;DHT22;57519;51.494;-2.626;2022-11-11T03:13:54;14.75;85.35
70154;DHT22;57519;51.494;-2.626;2022-11-11T03:16:19;14.75;85.48
70154;DHT22;57519;51.494;-2.626;2022-11-11T03:19:11;14.75;85.88
70154;DHT22;57519;51.494;-2.626;2022-11-11T03:21:36;14.75;85.98
70154;DHT22;57519;51.494;-2.626;2022-11-11T03:24:02;14.77;86.13
70154;DHT22;57519;51.494;-2.626;2022-11-11T03:26:28;14.80;86.16
70154;DHT22;57519;51.494;-2.626;2022-11-11T03:28:53;14.77;85.97
70154;DHT22;57519;51.494;-2.626;2022-11-11T03:31:18;14.78;85.78
70154;DHT22;57519;51.494;-2.626;2022-11-11T03:33:44;14.75;85.53
70154;DHT22;57519;51.494;-2.626;2022-11-11T03:36:09;14.81;85.18
70154;DHT22;57519;51.494;-2.626;2022-11-11T03:38:35;14.82;84.68
70154;DHT22;57519;51.494;-2.626;2022-11-11T03:41:00;14.84;84.32
70154;DHT22;57519;51.494;-2.626;2022-11-11T03:43:28;14.89;83.75
70154;DHT22;57519;51.494;-2.626;2022-11-11T03:45:55;14.96;83.10
70154;DHT22;57519;51.494;-2.626;2022-11-11T03:48:21;14.96;82.68
70154;DHT22;57519;51.494;-2.626;2022-11-11T03:50:47;14.92;82.78
70154;DHT22;57519;51.494;-2.626;2022-11-11T03:53:14;14.95;82.32
70154;DHT22;57519;51.494;-2.626;2022-11-11T03:55:40;15.02;81.82
70154;DHT22;57519;51.494;-2.626;2022-11-11T03:58:06;14.98;81.97
70154;DHT22;57519;51.494;-2.626;2022-11-11T04:00:33;14.91;82.23
70154;DHT22;57519;51.494;-2.626;2022-11-11T04:03:17;14.92;82.06
70154;DHT22;57519;51.494;-2.626;2022-11-11T04:06:02;15.02;81.67
70154;DHT22;57519;51.494;-2.626;2022-11-11T04:08:46;15.06;81.57
70154;DHT22;57519;51.494;-2.626;2022-11-11T04:11:32;14.99;81.87
70154;DHT22;57519;51.494;-2.626;2022-11-11T04:14:03;15.02;81.97
70154;DHT22;57519;51.494;-2.626;2022-11-11T04:16:48;15.03;81.85
70154;DHT22;57519;51.494;-2.626;2022-11-11T04:19:13;15.02;82.10
70154;DHT22;57519;51.494;-2.626;2022-11-11T04:21:57;15.03;82.31
70154;DHT22;57519;51.494;-2.626;2022-11-11T04:24:23;14.99;82.33
70154;DHT22;57519;51.494;-2.626;2022-11-11T04:27:09;14.99;82.57
70154;DHT22;57519;51.494;-2.626;2022-11-11T04:29:35;14.93;82.68
70154;DHT22;57519;51.494;-2.626;2022-11-11T04:32:08;14.92;83.01
70154;DHT22;57519;51.494;-2.626;2022-11-11T04:34:54;14.87;83.32
70154;DHT22;57519;51.494;-2.626;2022-11-11T04:37:21;14.88;83.52
70154;DHT22;57519;51.494;-2.626;2022-11-11T04:39:47;14.88;83.86
70154;DHT22;57519;51.494;-2.626;2022-11-11T04:42:32;14.93;84.00
70154;DHT22;57519;51.494;-2.626;2022-11-11T04:44:59;14.93;84.18
70154;DHT22;57519;51.494;-2.626;2022-11-11T04:48:07;14.88;84.64
70154;DHT22;57519;51.494;-2.626;2022-11-11T04:50:36;14.87;84.49
70154;DHT22;57519;51.494;-2.626;2022-11-11T04:53:04;14.87;84.61
70154;DHT22;57519;51.494;-2.626;2022-11-11T04:55:30;14.84;84.62
70154;DHT22;57519;51.494;-2.626;2022-11-11T04:58:19;14.88;83.88
70154;DHT22;57519;51.494;-2.626;2022-11-11T05:00:45;14.93;82.99
70154;DHT22;57519;51.494;-2.626;2022-11-11T05:03:12;14.96;82.02
70154;DHT22;57519;51.494;-2.626;2022-11-11T05:05:57;14.99;81.93
70154;DHT22;57519;51.494;-2.626;2022-11-11T05:08:46;14.93;81.62
70154;DHT22;57519;51.494;-2.626;2022-11-11T05:11:23;14.93;81.39
70154;DHT22;57519;51.494;-2.626;2022-11-11T05:13:49;14.92;80.75
70154;DHT22;57519;51.494;-2.626;2022-11-11T05:16:37;14.96;80.37
70154;DHT22;57519;51.494;-2.626;2022-11-11T05:19:22;14.92;80.81
70154;DHT22;57519;51.494;-2.626;2022-11-11T05:24:37;14.88;80.81
70154;DHT22;57519;51.494;-2.626;2022-11-11T05:27:21;14.84;80.98
70154;DHT22;57519;51.494;-2.626;2022-11-11T05:29:47;14.81;81.14
70154;DHT22;57519;51.494;-2.626;2022-11-11T05:32:16;14.75;81.33
70154;DHT22;57519;51.494;-2.626;2022-11-11T05:34:42;14.70;81.81
70154;DHT22;57519;51.494;-2.626;2022-11-11T05:37:08;14.74;81.70
70154;DHT22;57519;51.494;-2.626;2022-11-11T05:39:33;14.72;81.64
70154;DHT22;57519;51.494;-2.626;2022-11-11T05:41:59;14.68;82.03
70154;DHT22;57519;51.494;-2.626;2022-11-11T05:44:24;14.65;82.19
70154;DHT22;57519;51.494;-2.626;2022-11-11T05:46:50;14.75;81.98
70154;DHT22;57519;51.494;-2.626;2022-11-11T05:49:15;14.75;82.01
70154;DHT22;57519;51.494;-2.626;2022-11-11T05:51:42;14.72;82.46
70154;DHT22;57519;51.494;-2.626;2022-11-11T05:54:08;14.72;82.22
70154;DHT22;57519;51.494;-2.626;2022-11-11T05:56:33;14.82;81.32
70154;DHT22;57519;51.494;-2.626;2022-11-11T05:58:59;14.81;81.29
70154;DHT22;57519;51.494;-2.626;2022-11-11T06:01:24;14.81;80.80
70154;DHT22;57519;51.494;-2.626;2022-11-11T06:03:49;14.78;80.97
70154;DHT22;57519;51.494;-2.626;2022-11-11T06:06:15;14.82;80.77
70154;DHT22;57519;51.494;-2.626;2022-11-11T06:08:40;14.77;81.11
70154;DHT22;57519;51.494;-2.626;2022-11-11T06:11:06;14.80;80.69
70154;DHT22;57519;51.494;-2.626;2022-11-11T06:13:31;14.80;80.43
70154;DHT22;57519;51.494;-2.626;2022-11-11T06:15:57;14.82;80.35
70154;DHT22;57519;51.494;-2.626;2022-11-11T06:18:23;14.72;80.52
70154;DHT22;57519;51.494;-2.626;2022-11-11T06:20:56;14.68;80.89
70154;DHT22;57519;51.494;-2.626;2022-11-11T06:23:24;14.70;80.96
70154;DHT22;57519;51.494;-2.626;2022-11-11T06:25:50;14.68;80.88
70154;DHT22;57519;51.494;-2.626;2022-11-11T06:28:35;14.61;81.05
70154;DHT22;57519;51.494;-2.626;2022-11-11T06:31:01;14.59;81.17
70154;DHT22;57519;51.494;-2.626;2022-11-11T06:33:27;14.61;81.26
70154;DHT22;57519;51.494;-2.626;2022-11-11T06:35:52;14.57;80.97
70154;DHT22;57519;51.494;-2.626;2022-11-11T06:38:18;14.56;81.11
70154;DHT22;57519;51.494;-2.626;2022-11-11T06:40:44;14.59;80.93
70154;DHT22;57519;51.494;-2.626;2022-11-11T06:43:09;14.57;80.87
70154;DHT22;57519;51.494;-2.626;2022-11-11T06:45:35;14.50;81.25
70154;DHT22;57519;51.494;-2.626;2022-11-11T06:48:02;14.51;81.49
70154;DHT22;57519;51.494;-2.626;2022-11-11T06:50:27;14.48;81.09
70154;DHT22;57519;51.494;-2.626;2022-11-11T06:52:56;14.44;81.34
70154;DHT22;57519;51.494;-2.626;2022-11-11T06:55:21;14.48;81.14
70154;DHT22;57519;51.494;-2.626;2022-11-11T06:57:47;14.41;81.45
70154;DHT22;57519;51.494;-2.626;2022-11-11T07:00:12;14.45;81.44
70154;DHT22;57519;51.494;-2.626;2022-11-11T07:02:38;14.44;81.14
70154;DHT22;57519;51.494;-2.626;2022-11-11T07:05:04;14.45;81.08
70154;DHT22;57519;51.494;-2.626;2022-11-11T07:07:30;14.44;81.28
70154;DHT22;57519;51.494;-2.626;2022-11-11T07:09:56;14.41;81.19
70154;DHT22;57519;51.494;-2.626;2022-11-11T07:12:22;14.47;80.91
70154;DHT22;57519;51.494;-2.626;2022-11-11T07:14:47;14.44;80.88
70154;DHT22;57519;51.494;-2.626;2022-11-11T07:17:13;14.41;80.86
70154;DHT22;57519;51.494;-2.626;2022-11-11T07:19:38;14.44;80.88
70154;DHT22;57519;51.494;-2.626;2022-11-11T07:22:03;14.48;80.46
70154;DHT22;57519;51.494;-2.626;2022-11-11T07:24:29;14.44;80.44
70154;DHT22;57519;51.494;-2.626;2022-11-11T07:26:54;14.50;80.38
70154;DHT22;57519;51.494;-2.626;2022-11-11T07:29:20;14.47;80.24
70154;DHT22;57519;51.494;-2.626;2022-11-11T07:31:45;14.45;80.53
70154;DHT22;57519;51.494;-2.626;2022-11-11T07:34:11;14.45;80.47
70154;DHT22;57519;51.494;-2.626;2022-11-11T07:36:36;14.44;80.65
70154;DHT22;57519;51.494;-2.626;2022-11-11T07:39:02;14.44;80.66
70154;DHT22;57519;51.494;-2.626;2022-11-11T07:41:27;14.50;80.05
70154;DHT22;57519;51.494;-2.626;2022-11-11T07:43:53;14.47;80.54
70154;DHT22;57519;51.494;-2.626;2022-11-11T07:46:18;14.47;80.52
70154;DHT22;57519;51.494;-2.626;2022-11-11T07:48:43;14.51;80.11
70154;DHT22;57519;51.494;-2.626;2022-11-11T07:51:09;14.59;80.08
70154;DHT22;57519;51.494;-2.626;2022-11-11T07:53:34;14.57;80.19
70154;DHT22;57519;51.494;-2.626;2022-11-11T07:56:00;14.60;80.23
70154;DHT22;57519;51.494;-2.626;2022-11-11T07:58:25;14.60;80.45
70154;DHT22;57519;51.494;-2.626;2022-11-11T08:00:50;14.54;80.50
70154;DHT22;57519;51.494;-2.626;2022-11-11T08:03:16;14.57;80.66
70154;DHT22;57519;51.494;-2.626;2022-11-11T08:05:42;14.65;80.23
70154;DHT22;57519;51.494;-2.626;2022-11-11T08:08:08;14.60;80.69
70154;DHT22;57519;51.494;-2.626;2022-11-11T08:10:34;14.57;80.68
70154;DHT22;57519;51.494;-2.626;2022-11-11T08:13:00;14.60;80.88
70154;DHT22;57519;51.494;-2.626;2022-11-11T08:15:44;14.70;80.72
70154;DHT22;57519;51.494;-2.626;2022-11-11T08:18:10;14.64;80.72
70154;DHT22;57519;51.494;-2.626;2022-11-11T08:20:35;14.65;81.20
70154;DHT22;57519;51.494;-2.626;2022-11-11T08:23:01;14.61;81.35
70154;DHT22;57519;51.494;-2.626;2022-11-11T08:25:29;14.64;81.43
70154;DHT22;57519;51.494;-2.626;2022-11-11T08:28:02;14.63;81.72
70154;DHT22;57519;51.494;-2.626;2022-11-11T08:30:28;14.67;81.51
70154;DHT22;57519;51.494;-2.626;2022-11-11T08:33:01;14.65;81.76
70154;DHT22;57519;51.494;-2.626;2022-11-11T08:35:27;14.68;81.75
70154;DHT22;57519;51.494;-2.626;2022-11-11T08:37:53;14.68;82.16
70154;DHT22;57519;51.494;-2.626;2022-11-11T08:40:19;14.67;82.31
70154;DHT22;57519;51.494;-2.626;2022-11-11T08:42:44;14.65;82.54
70154;DHT22;57519;51.494;-2.626;2022-11-11T08:45:10;14.68;82.39
70154;DHT22;57519;51.494;-2.626;2022-11-11T08:47:36;14.67;82.42
70154;DHT22;57519;51.494;-2.626;2022-11-11T08:50:02;14.64;82.81
70154;DHT22;57519;51.494;-2.626;2022-11-11T08:52:28;14.71;82.53
70154;DHT22;57519;51.494;-2.626;2022-11-11T08:54:53;14.71;82.80
70154;DHT22;57519;51.494;-2.626;2022-11-11T08:57:19;14.74;82.99
70154;DHT22;57519;51.494;-2.626;2022-11-11T08:59:44;14.72;82.76
70154;DHT22;57519;51.494;-2.626;2022-11-11T09:02:11;14.78;82.90
70154;DHT22;57519;51.494;-2.626;2022-11-11T09:04:37;14.75;82.98
70154;DHT22;57519;51.494;-2.626;2022-11-11T09:07:03;14.75;83.08
70154;DHT22;57519;51.494;-2.626;2022-11-11T09:09:28;14.82;83.14
70154;DHT22;57519;51.494;-2.626;2022-11-11T09:11:53;14.81;83.25
70154;DHT22;57519;51.494;-2.626;2022-11-11T09:14:19;14.81;83.20
70154;DHT22;57519;51.494;-2.626;2022-11-11T09:16:44;14.81;83.37
70154;DHT22;57519;51.494;-2.626;2022-11-11T09:19:10;14.84;83.46
70154;DHT22;57519;51.494;-2.626;2022-11-11T09:21:35;14.82;83.50
70154;DHT22;57519;51.494;-2.626;2022-11-11T09:24:00;14.82;83.65
70154;DHT22;57519;51.494;-2.626;2022-11-11T09:26:26;14.87;83.70
70154;DHT22;57519;51.494;-2.626;2022-11-11T09:28:51;14.84;83.71
70154;DHT22;57519;51.494;-2.626;2022-11-11T09:31:17;14.85;83.98
70154;DHT22;57519;51.494;-2.626;2022-11-11T09:33:42;14.87;83.88
70154;DHT22;57519;51.494;-2.626;2022-11-11T09:36:07;14.93;84.05
70154;DHT22;57519;51.494;-2.626;2022-11-11T09:38:33;14.92;84.17
70154;DHT22;57519;51.494;-2.626;2022-11-11T09:43:54;14.99;84.20
70154;DHT22;57519;51.494;-2.626;2022-11-11T09:52:13;15.06;84.94
70154;DHT22;57519;51.494;-2.626;2022-11-11T09:55:03;15.09;85.14
70154;DHT22;57519;51.494;-2.626;2022-11-11T09:57:37;15.05;85.64
70154;DHT22;57519;51.494;-2.626;2022-11-11T10:00:18;15.15;85.60
70154;DHT22;57519;51.494;-2.626;2022-11-11T10:02:57;15.25;85.59
70154;DHT22;57519;51.494;-2.626;2022-11-11T10:05:32;15.26;85.43
70154;DHT22;57519;51.494;-2.626;2022-11-11T10:08:25;15.33;85.42
70154;DHT22;57519;51.494;-2.626;2022-11-11T10:10:53;15.37;85.27
70154;DHT22;57519;51.494;-2.626;2022-11-11T10:13:28;15.44;85.07
70154;DHT22;57519;51.494;-2.626;2022-11-11T10:21:23;15.60;84.15
70154;DHT22;57519;51.494;-2.626;2022-11-11T10:23:54;15.60;83.76
70154;DHT22;57519;51.494;-2.626;2022-11-11T10:28:53;15.74;83.52
70154;DHT22;57519;51.494;-2.626;2022-11-11T10:31:21;15.80;83.01
70154;DHT22;57519;51.494;-2.626;2022-11-11T10:33:54;15.81;83.12
70154;DHT22;57519;51.494;-2.626;2022-11-11T10:36:23;15.91;82.99
70154;DHT22;57519;51.494;-2.626;2022-11-11T10:38:59;15.94;82.44
70154;DHT22;57519;51.494;-2.626;2022-11-11T10:41:39;16.09;82.34
70154;DHT22;57519;51.494;-2.626;2022-11-11T10:44:18;16.04;82.39
70154;DHT22;57519;51.494;-2.626;2022-11-11T10:47:00;15.98;82.42
70154;DHT22;57519;51.494;-2.626;2022-11-11T10:49:31;15.93;82.74
70154;DHT22;57519;51.494;-2.626;2022-11-11T10:54:40;16.06;82.53
70154;DHT22;57519;51.494;-2.626;2022-11-11T10:57:21;16.08;82.13
70154;DHT22;57519;51.494;-2.626;2022-11-11T10:59:54;16.08;82.17
70154;DHT22;57519;51.494;-2.626;2022-11-11T11:02:25;16.11;82.50
70154;DHT22;57519;51.494;-2.626;2022-11-11T11:05:04;16.06;82.30
70154;DHT22;57519;51.494;-2.626;2022-11-11T11:07:45;16.12;82.21
70154;DHT22;57519;51.494;-2.626;2022-11-11T11:10:15;16.14;81.99
70154;DHT22;57519;51.494;-2.626;2022-11-11T11:13:02;16.25;81.73
70154;DHT22;57519;51.494;-2.626;2022-11-11T11:15:29;16.36;81.48
70154;DHT22;57519;51.494;-2.626;2022-11-11T11:18:08;16.38;81.26
70154;DHT22;57519;51.494;-2.626;2022-11-11T11:20:35;16.29;81.34
70154;DHT22;57519;51.494;-2.626;2022-11-11T11:23:01;16.29;81.12
70154;DHT22;57519;51.494;-2.626;2022-11-11T11:25:28;16.32;81.20
70154;DHT22;57519;51.494;-2.626;2022-11-11T11:28:13;16.36;80.68
70154;DHT22;57519;51.494;-2.626;2022-11-11T11:30:38;16.46;80.34
70154;DHT22;57519;51.494;-2.626;2022-11-11T11:33:06;16.55;80.30
70154;DHT22;57519;51.494;-2.626;2022-11-11T11:35:42;16.38;80.14
70154;DHT22;57519;51.494;-2.626;2022-11-11T11:38:10;16.25;80.59
70154;DHT22;57519;51.494;-2.626;2022-11-11T11:40:55;16.19;80.85
70154;DHT22;57519;51.494;-2.626;2022-11-11T11:43:38;16.15;80.98
70154;DHT22;57519;51.494;-2.626;2022-11-11T11:46:16;16.15;80.85
70154;DHT22;57519;51.494;-2.626;2022-11-11T11:51:51;16.26;80.41
70154;DHT22;57519;51.494;-2.626;2022-11-11T11:57:14;16.30;80.20
70154;DHT22;57519;51.494;-2.626;2022-11-11T12:00:01;16.36;79.87
70154;DHT22;57519;51.494;-2.626;2022-11-11T12:12:49;16.50;78.80
70154;DHT22;57519;51.494;-2.626;2022-11-11T12:26:07;16.56;78.12
70154;DHT22;57519;51.494;-2.626;2022-11-11T12:39:57;16.85;77.32
70154;DHT22;57519;51.494;-2.626;2022-11-11T12:45:18;17.06;77.02
70154;DHT22;57519;51.494;-2.626;2022-11-11T12:48:37;16.92;76.43
70154;DHT22;57519;51.494;-2.626;2022-11-11T12:53:45;16.95;76.95
70154;DHT22;57519;51.494;-2.626;2022-11-11T12:56:38;16.87;77.34
70154;DHT22;57519;51.494;-2.626;2022-11-11T13:02:32;16.71;77.20
70154;DHT22;57519;51.494;-2.626;2022-11-11T13:05:26;16.63;77.01
70154;DHT22;57519;51.494;-2.626;2022-11-11T13:15:55;16.50;77.91
70154;DHT22;57519;51.494;-2.626;2022-11-11T13:18:25;16.43;77.14
70154;DHT22;57519;51.494;-2.626;2022-11-11T13:20:55;16.22;77.86
70154;DHT22;57519;51.494;-2.626;2022-11-11T13:23:21;16.18;78.30
70154;DHT22;57519;51.494;-2.626;2022-11-11T13:25:50;16.22;78.23
70154;DHT22;57519;51.494;-2.626;2022-11-11T13:28:25;16.22;78.16
70154;DHT22;57519;51.494;-2.626;2022-11-11T13:31:21;16.11;78.31
70154;DHT22;57519;51.494;-2.626;2022-11-11T13:33:54;16.01;78.73
70154;DHT22;57519;51.494;-2.626;2022-11-11T13:36:26;15.93;78.65
70154;DHT22;57519;51.494;-2.626;2022-11-11T13:38:55;15.90;78.88
70154;DHT22;57519;51.494;-2.626;2022-11-11T13:41:33;15.93;78.94
70154;DHT22;57519;51.494;-2.626;2022-11-11T13:44:03;15.85;79.02
70154;DHT22;57519;51.494;-2.626;2022-11-11T13:46:34;15.80;79.55
70154;DHT22;57519;51.494;-2.626;2022-11-11T13:49:02;15.75;79.87
70154;DHT22;57519;51.494;-2.626;2022-11-11T13:51:39;15.66;80.20
70154;DHT22;57519;51.494;-2.626;2022-11-11T13:54:28;15.66;80.18
70154;DHT22;57519;51.494;-2.626;2022-11-11T13:57:04;15.70;79.97
70154;DHT22;57519;51.494;-2.626;2022-11-11T13:59:42;15.81;80.02
70154;DHT22;57519;51.494;-2.626;2022-11-11T14:12:43;15.77;80.11
70154;DHT22;57519;51.494;-2.626;2022-11-11T14:15:33;15.77;79.92
70154;DHT22;57519;51.494;-2.626;2022-11-11T14:17:59;15.77;79.77
70154;DHT22;57519;51.494;-2.626;2022-11-11T14:20:35;15.80;79.85
70154;DHT22;57519;51.494;-2.626;2022-11-11T14:25:47;15.90;79.80
70154;DHT22;57519;51.494;-2.626;2022-11-11T14:30:51;15.87;79.51
70154;DHT22;57519;51.494;-2.626;2022-11-11T14:33:35;15.80;79.79
70154;DHT22;57519;51.494;-2.626;2022-11-11T14:36:39;15.78;80.08
70154;DHT22;57519;51.494;-2.626;2022-11-11T14:41:54;15.64;80.36
70154;DHT22;57519;51.494;-2.626;2022-11-11T14:57:46;15.57;80.71
70154;DHT22;57519;51.494;-2.626;2022-11-11T15:00:21;15.60;80.29
70154;DHT22;57519;51.494;-2.626;2022-11-11T15:02:54;15.54;80.39
70154;DHT22;57519;51.494;-2.626;2022-11-11T15:05:38;15.43;80.74
70154;DHT22;57519;51.494;-2.626;2022-11-11T15:08:24;15.46;80.73
70154;DHT22;57519;51.494;-2.626;2022-11-11T15:19:14;15.22;81.12
70154;DHT22;57519;51.494;-2.626;2022-11-11T15:27:19;15.12;81.88
70154;DHT22;57519;51.494;-2.626;2022-11-11T15:30:12;15.06;81.76
70154;DHT22;57519;51.494;-2.626;2022-11-11T15:35:34;14.89;82.25
70154;DHT22;57519;51.494;-2.626;2022-11-11T15:38:03;14.85;82.31
70154;DHT22;57519;51.494;-2.626;2022-11-11T15:43:17;14.84;82.58
70154;DHT22;57519;51.494;-2.626;2022-11-11T15:45:43;14.74;82.68
70154;DHT22;57519;51.494;-2.626;2022-11-11T15:48:16;14.67;82.92
70154;DHT22;57519;51.494;-2.626;2022-11-11T15:50:43;14.70;83.55
70154;DHT22;57519;51.494;-2.626;2022-11-11T15:53:12;14.67;83.22
70154;DHT22;57519;51.494;-2.626;2022-11-11T15:55:37;14.61;83.35
70154;DHT22;57519;51.494;-2.626;2022-11-11T15:58:14;14.57;83.40
70154;DHT22;57519;51.494;-2.626;2022-11-11T16:00:40;14.53;83.73
70154;DHT22;57519;51.494;-2.626;2022-11-11T16:03:16;14.56;84.15
70154;DHT22;57519;51.494;-2.626;2022-11-11T16:05:42;14.56;83.57
70154;DHT22;57519;51.494;-2.626;2022-11-11T16:08:09;14.59;83.23
70154;DHT22;57519;51.494;-2.626;2022-11-11T16:10:42;14.56;83.05
70154;DHT22;57519;51.494;-2.626;2022-11-11T16:13:38;14.57;83.02
70154;DHT22;57519;51.494;-2.626;2022-11-11T16:18:41;14.59;82.64
70154;DHT22;57519;51.494;-2.626;2022-11-11T16:21:13;14.57;82.71
70154;DHT22;57519;51.494;-2.626;2022-11-11T16:23:40;14.59;82.74
70154;DHT22;57519;51.494;-2.626;2022-11-11T16:26:07;14.60;83.04
70154;DHT22;57519;51.494;-2.626;2022-11-11T16:28:59;14.48;83.02
70154;DHT22;57519;51.494;-2.626;2022-11-11T16:37:02;14.34;83.35
70154;DHT22;57519;51.494;-2.626;2022-11-11T16:39:29;14.30;83.40
70154;DHT22;57519;51.494;-2.626;2022-11-11T16:41:56;14.26;83.89
70154;DHT22;57519;51.494;-2.626;2022-11-11T16:50:05;14.09;84.24
70154;DHT22;57519;51.494;-2.626;2022-11-11T16:52:52;14.01;84.58
70154;DHT22;57519;51.494;-2.626;2022-11-11T16:55:36;13.93;84.91
70154;DHT22;57519;51.494;-2.626;2022-11-11T16:58:11;13.89;85.19
70154;DHT22;57519;51.494;-2.626;2022-11-11T17:00:38;13.86;85.39
70154;DHT22;57519;51.494;-2.626;2022-11-11T17:03:22;13.83;85.44
70154;DHT22;57519;51.494;-2.626;2022-11-11T17:06:02;13.82;85.65
70154;DHT22;57519;51.494;-2.626;2022-11-11T17:08:39;13.79;85.61
70154;DHT22;57519;51.494;-2.626;2022-11-11T17:11:09;13.79;85.77
70154;DHT22;57519;51.494;-2.626;2022-11-11T17:13:35;13.78;85.68
70154;DHT22;57519;51.494;-2.626;2022-11-11T17:16:03;13.78;85.52
70154;DHT22;57519;51.494;-2.626;2022-11-11T17:18:35;13.69;85.82
70154;DHT22;57519;51.494;-2.626;2022-11-11T17:21:01;13.64;85.99
70154;DHT22;57519;51.494;-2.626;2022-11-11T17:23:27;13.59;86.20
70154;DHT22;57519;51.494;-2.626;2022-11-11T17:25:56;13.53;86.43
70154;DHT22;57519;51.494;-2.626;2022-11-11T17:28:24;13.43;86.80
70154;DHT22;57519;51.494;-2.626;2022-11-11T17:30:50;13.40;87.00
70154;DHT22;57519;51.494;-2.626;2022-11-11T17:33:16;13.38;87.22
70154;DHT22;57519;51.494;-2.626;2022-11-11T17:35:51;13.36;87.19
70154;DHT22;57519;51.494;-2.626;2022-11-11T17:38:18;13.37;86.99
70154;DHT22;57519;51.494;-2.626;2022-11-11T17:40:46;13.30;87.31
70154;DHT22;57519;51.494;-2.626;2022-11-11T17:43:12;13.34;87.22
70154;DHT22;57519;51.494;-2.626;2022-11-11T17:45:38;13.27;87.20
70154;DHT22;57519;51.494;-2.626;2022-11-11T17:48:04;13.28;87.21
70154;DHT22;57519;51.494;-2.626;2022-11-11T17:50:30;13.34;87.60
70154;DHT22;57519;51.494;-2.626;2022-11-11T17:52:55;13.41;87.41
70154;DHT22;57519;51.494;-2.626;2022-11-11T17:55:22;13.43;87.20
70154;DHT22;57519;51.494;-2.626;2022-11-11T17:57:47;13.54;86.68
70154;DHT22;57519;51.494;-2.626;2022-11-11T18:00:14;13.57;86.54
70154;DHT22;57519;51.494;-2.626;2022-11-11T18:02:40;13.65;86.22
70154;DHT22;57519;51.494;-2.626;2022-11-11T18:05:06;13.71;85.87
70154;DHT22;57519;51.494;-2.626;2022-11-11T18:07:31;13.76;85.77